Blue Oak Ranch Reserve, California Weather observations

Data are for 10 minute period ending at time listed.
 Day   Time   Solar   Ave.   Ave.  Ave.  Vector  Max.   Baro.   Total    
  of    of     Rad.   Air    Rel.  Wind   Wind   Wind  Press.  Precip.   
Year   Day            Temp.  Hum.  Speed  Dir.   Gust                    
2021   (PST)  Kw/m2    F      %     mph   deg.    mph    mb.     in.     
-------------------------------------------------------------------------
 107   15:10   0.67   71.0    41    8.6   271    14.7   950.0    0.00 
 107   15:20   0.63   68.5    46    9.4   255    14.5   950.0    0.00 
 107   15:30   0.60   67.5    46    7.9   258    15.8   950.0    0.00 
 107   15:40   0.57   68.6    45    8.6   273    14.1   950.0    0.00 
 107   15:50   0.55   69.3    44    7.3   262    12.1   950.0    0.00 
 107   16:00   0.51   69.5    43    7.1   276    12.4   950.0    0.00 
 107   16:10   0.48   69.7    41    8.3   269    11.8   950.1    0.00 
 107   16:20   0.45   69.7    40    6.7   271    10.7   950.1    0.00 
 107   16:30   0.41   69.1    40    6.8   253    11.7   950.1    0.00 
 107   16:40   0.38   69.9    40    6.3   270    12.5   950.1    0.00 
 107   16:50   0.35   69.2    39    5.9   248    11.8   950.2    0.00 
 107   17:00   0.31   69.5    39    5.3   267    10.1   950.3    0.00 
 107   17:10   0.28   68.9    41    5.2   250    11.5   950.3    0.00 
 107   17:20   0.24   67.3    43    5.6   267     8.2   950.4    0.00 
 107   17:30   0.21   67.2    44    3.7   265     7.6   950.4    0.00 
 107   17:40   0.18   67.0    45    2.7   271     5.4   950.5    0.00 
 107   17:50   0.14   66.2    46    3.2   262     6.1   950.7    0.00 
 107   18:00   0.11   65.8    47    2.4   249     4.9   950.7    0.00 
 107   18:10   0.08   63.7    52    1.0   201     2.8   950.7    0.00 
 107   18:20   0.06   62.5    54    1.0   248     2.7   950.8    0.00 
 107   18:30   0.03   61.3    57    1.5   295     3.7   950.8    0.00 
 107   18:40   0.01   58.8    62    1.0     8     2.6   950.9    0.00 
 107   18:50   0.01   56.6    66    1.4    53     2.3   950.9    0.00 
 107   19:00   0.00   55.6    68    1.5   304     3.4   951.0    0.00 
 107   19:10   0.00   54.6    69    2.0   291     3.6   951.0    0.00 
 107   19:20   0.00   53.5    71    1.8   305     3.6   951.2    0.00 
 107   19:30   0.00   52.9    72    2.1   303     2.9   951.3    0.00 
 107   19:40   0.00   52.1    73    2.8   291     5.0   951.4    0.00 
 107   19:50   0.00   51.7    72    1.3   295     2.7   951.5    0.00 
 107   20:00   0.00   51.2    72    2.0   291     3.1   951.6    0.00 
 107   20:10   0.00   50.5    73    1.3     6     2.8   951.7    0.00 
 107   20:20   0.00   49.6    73    1.2    57     2.4   951.8    0.00 
 107   20:30   0.00   48.9    73    0.8    62     2.2   951.9    0.00 
 107   20:40   0.00   48.6    74    1.5   303     2.8   951.9    0.00 
 107   20:50   0.00   48.0    76    1.1   321     2.9   952.0    0.00 
 107   21:00   0.00   47.9    73    0.7    64     2.1   952.1    0.00 
 107   21:10   0.00   47.8    74    0.7   287     1.9   952.1    0.00 
 107   21:20   0.00   47.6    75    0.3    73     1.3   952.2    0.00 
 107   21:30   0.00   47.8    73    0.5   285     3.4   952.1    0.00 
 107   21:40   0.00   47.4    72    0.3    48     1.7   952.1    0.00 
 107   21:50   0.00   47.4    70    0.4    82     1.5   952.1    0.00 
 107   22:00   0.00   47.2    69    0.2   285     2.0   952.0    0.00 
 107   22:10   0.00   47.3    70    0.3   315     1.9   952.0    0.00 
 107   22:20   0.00   47.7    68    0.2     9     1.6   951.9    0.00 
 107   22:30   0.00   46.7    70    0.1    96     1.2   951.9    0.00 
 107   22:40   0.00   46.8    66    0.9    36     2.3   951.9    0.00 
 107   22:50   0.00   47.1    63    1.7    53     3.1   951.9    0.00 
 107   23:00   0.00   47.2    62    1.5    43     3.3   951.9    0.00 
 107   23:10   0.00   47.8    60    1.0    44     1.8   951.9    0.00 
 107   23:20   0.00   47.6    60    0.2     7     1.5   952.0    0.00 
 107   23:30   0.00   47.6    59    0.6   327     2.6   952.0    0.00 
 107   23:40   0.00   47.2    60    0.6   300     2.8   952.0    0.00 
 107   23:50   0.00   47.1    59    0.2   297     1.3   952.1    0.00 
 108    0:00   0.00   46.8    59    0.8     6     2.8   952.1    0.00 
 108    0:10   0.00   46.3    60    0.4    45     1.8   952.0    0.00 
 108    0:20   0.00   46.2    60    0.3   292     2.5   952.0    0.00 
 108    0:30   0.00   46.1    59    0.1    55     0.8   951.9    0.00 
 108    0:40   0.00   46.0    58    0.6   312     2.2   951.9    0.00 
 108    0:50   0.00   45.5    59    0.4    54     1.9   952.0    0.00 
 108    1:00   0.00   45.9    57    1.3    48     3.0   952.0    0.00 
 108    1:10   0.00   45.4    58    3.1   288     5.7   952.0    0.00 
 108    1:20   0.00   44.8    57    2.1    60     4.6   952.1    0.00 
 108    1:30   0.00   45.9    54    0.7     7     2.6   952.1    0.00 
 108    1:40   0.00   46.2    53    2.1   280     3.7   952.1    0.00 
 108    1:50   0.00   46.1    52    0.4    43     1.8   952.2    0.00 
 108    2:00   0.00   46.3    51    0.5   343     1.8   952.2    0.00 
 108    2:10   0.00   46.4    51    0.4   287     1.8   952.2    0.00 
 108    2:20   0.00   47.0    48    0.9    64     2.8   952.2    0.00 
 108    2:30   0.00   45.2    54    1.8   300     3.4   952.3    0.00 
 108    2:40   0.00   44.4    54    1.6    36     2.8   952.2    0.00 
 108    2:50   0.00   45.5    50    1.1   297     3.0   952.3    0.00 
 108    3:00   0.00   45.6    51    0.7   305     2.3   952.3    0.00 
 108    3:10   0.00   46.1    48    0.0     0     0.0   952.3    0.00 
 108    3:20   0.00   46.6    48    0.0   282     0.5   952.3    0.00 
 108    3:30   0.00   46.2    49    0.0     0     0.0   952.4    0.00 
 108    3:40   0.00   46.0    48    0.3   341     1.3   952.3    0.00 
 108    3:50   0.00   46.7    47    0.6    60     2.0   952.3    0.00 
 108    4:00   0.00   46.3    48    1.0   291     3.5   952.3    0.00 
 108    4:10   0.00   44.6    52    3.4   296     6.2   952.4    0.00 
 108    4:20   0.00   45.6    49    2.3    25     4.2   952.4    0.00 
 108    4:30   0.00   46.7    46    2.4   299     4.1   952.5    0.00 
 108    4:40   0.00   46.1    49    0.9   288     3.1   952.6    0.00 
 108    4:50   0.00   45.8    49    1.4   348     2.9   952.6    0.00 
 108    5:00   0.00   45.6    49    0.3   307     1.6   952.6    0.00 
 108    5:10   0.00   46.1    48    0.3    16     2.2   952.7    0.00 
 108    5:20   0.00   45.9    49    1.0   288     2.8   952.7    0.00 
 108    5:30   0.00   44.6    51    0.7   324     2.1   952.8    0.00 
 108    5:40   0.01   45.8    47    0.2   355     1.0   952.8    0.00 
 108    5:50   0.01   46.0    48    0.2    74     1.2   952.9    0.00 
 108    6:00   0.02   45.9    49    0.4   316     1.2   953.0    0.00 
 108    6:10   0.02   45.2    50    0.7   304     1.5   953.1    0.00 
 108    6:20   0.03   45.9    50    0.6   331     1.8   953.2    0.00 
 108    6:30   0.10   47.4    46    0.0     0     0.0   953.3    0.00 
 108    6:40   0.15   51.5    41    0.3   134     1.1   953.4    0.00 
 108    6:50   0.19   55.8    41    1.0    55     3.0   953.4    0.00 
 108    7:00   0.22   58.2    44    0.7    50     1.9   953.4    0.00 
 108    7:10   0.26   60.8    40    1.0   286     1.8   953.5    0.00 
 108    7:20   0.29   63.7    36    1.0   283     2.0   953.5    0.00 
 108    7:30   0.33   66.1    30    1.5   276     2.7   953.6    0.00 
 108    7:40   0.36   67.7    34    1.5   279     3.3   953.7    0.00 
 108    7:50   0.40   68.6    33    0.3   217     1.9   953.8    0.00 
 108    8:00   0.44   70.7    29    0.1   299     1.6   953.8    0.00 
 108    8:10   0.47   71.7    26    0.8   270     2.3   953.7    0.00 
 108    8:20   0.51   71.7    26    2.1   241     3.9   953.7    0.00 
 108    8:30   0.54   71.7    26    2.2   224     4.3   953.7    0.00 
 108    8:40   0.57   71.9    27    2.5   226     4.5   953.6    0.00 
 108    8:50   0.60   71.6    29    3.2   231     5.2   953.6    0.00 
 108    9:00   0.63   70.8    32    4.7   236     7.2   953.7    0.00 
 108    9:10   0.66   69.5    35    4.0   232     5.7   953.7    0.00 
 108    9:20   0.69   69.4    36    3.8   226     5.3   953.8    0.00 
 108    9:30   0.72   70.9    35    4.0   242     5.6   953.8    0.00 
 108    9:40   0.74   71.2    36    5.0   253     8.5   953.9    0.00 
 108    9:50   0.77   71.4    36    3.8   238     6.0   953.9    0.00 
 108   10:00   0.79   72.2    36    3.8   250     6.8   954.0    0.00 
 108   10:10   0.81   72.9    34    5.0   242     8.0   953.9    0.00 
 108   10:20   0.83   72.4    36    6.3   246    11.1   953.9    0.00 
 108   10:30   0.85   71.9    35    6.4   244    10.5   954.0    0.00 
 108   10:40   0.87   71.6    34    6.9   244    11.4   954.0    0.00 
 108   10:50   0.88   73.0    32    7.9   255    13.0   954.0    0.00 
 108   11:00   0.90   72.4    34    6.5   247    11.8   954.0    0.00 
 108   11:10   0.91   73.5    33    6.0   265    11.8   954.1    0.00 
 108   11:20   0.92   75.3    30    5.7   268    12.8   954.0    0.00 
 108   11:30   0.93   76.3    27    7.1   281    12.0   954.0    0.00 
 108   11:40   0.94   75.3    32    6.0   241    10.4   953.9    0.00 
 108   11:50   0.94   75.3    28    6.8   259    13.4   953.8    0.00 
 108   12:00   0.95   76.5    24    6.5   273    13.4   953.8    0.00 
 108   12:10   0.95   76.2    28    6.7   264    14.2   953.8    0.00 
 108   12:20   0.95   75.8    29    6.8   258    14.8   953.8    0.00 
 108   12:30   0.95   76.2    25    7.4   275    12.9   953.8    0.00 
 108   12:40   0.94   77.1    24    5.9   267    11.8   953.8    0.00 
 108   12:50   0.91   76.5    22    7.0   251    12.9   953.7    0.00 
 108   13:00   0.92   76.7    22    7.0   244    12.4   953.6    0.00 
 108   13:10   0.92   77.5    22    6.5   257    12.8   953.6    0.00 
 108   13:20   0.91   76.9    25    7.1   243    15.8   953.5    0.00 
 108   13:30   0.89   77.8    20    8.0   268    13.3   953.5    0.00 
 108   13:40   0.88   77.4    24    8.2   257    14.5   953.4    0.00 
 108   13:50   0.86   78.4    24    7.8   276    12.8   953.4    0.00 
 108   14:00   0.84   78.7    20    7.4   266    12.5   953.3    0.00 
 108   14:10   0.82   78.2    22    6.8   262    13.6   953.3    0.00 
 108   14:20   0.80   78.8    22    9.4   284    14.1   953.3    0.00 
 108   14:30   0.78   78.2    23    9.6   283    15.2   953.2    0.00 
 108   14:40   0.76   77.5    22   10.4   289    16.1   953.1    0.00 
 108   14:50   0.73   77.5    21   10.0   285    13.7   953.0    0.00 
 108   15:00   0.71   77.8    21    8.9   269    13.7   952.9    0.00 

Return to Blue Oak Ranch Reserve graphs page.


Western Regional Climate Center,wrcc@dri.edu